Time;durP1;ratioP1;P1;durP2;ratioP2;P2;SDS_P1;SDS_P2;PMS_P1;PMS_P2;Temp;Humidity;BMP_temperature;BMP_pressure;BME280_temperature;BME280_humidity;BME280_pressure;Samples;Min_cycle;Max_cycle;Signal;HPM_P1;HPM_P2
2023/07/20 03:51:48;;;;;;;6.82;2.83;;;;;;;22.22;82.98;99749.91;6478114;27;20088;-82
2023/07/20 03:54:51;;;;;;;2.90;2.20;;;;;;;22.21;83.34;99748.28;6524504;27;34196;-83
2023/07/20 03:57:54;;;;;;;3.42;2.40;;;;;;;22.23;83.00;99748.00;6525137;27;33574;-83
2023/07/20 04:00:57;;;;;;;5.60;2.87;;;;;;;22.21;82.48;99750.22;6524756;27;33538;-83
2023/07/20 04:04:01;;;;;;;4.60;2.60;;;;;;;22.25;82.14;99754.03;6524794;27;33596;-84
2023/07/20 04:07:04;;;;;;;5.15;2.60;;;;;;;22.29;81.64;99744.16;6524507;27;33471;-83
2023/07/20 04:10:07;;;;;;;3.65;2.33;;;;;;;22.30;81.62;99745.84;6505291;27;33098;-83
2023/07/20 04:13:10;;;;;;;3.70;2.45;;;;;;;22.26;81.57;99751.03;6524790;27;33976;-83
2023/07/20 04:16:13;;;;;;;6.12;2.60;;;;;;;22.28;81.54;99750.75;6505341;27;33201;-83
2023/07/20 04:19:17;;;;;;;3.25;2.40;;;;;;;22.27;82.03;99740.91;6488027;27;33033;-83
2023/07/20 04:22:21;;;;;;;4.37;2.60;;;;;;;22.25;81.41;99740.34;6524933;27;33475;-83
2023/07/20 04:25:24;;;;;;;3.10;2.50;;;;;;;22.24;81.72;99736.78;6523631;27;32889;-83
2023/07/20 04:28:27;;;;;;;5.45;2.60;;;;;;;22.24;81.46;99736.78;6525272;27;33425;-83
2023/07/20 04:31:33;;;;;;;4.25;2.75;;;;;;;22.27;81.65;99735.41;6504926;27;33594;-83
2023/07/20 04:34:37;;;;;;;3.85;2.65;;;;;;;22.30;80.05;99737.59;6527148;27;33503;-84
2023/07/20 04:37:45;;;;;;;3.70;2.37;;;;;;;22.36;81.00;99734.59;6524706;27;33779;-83
2023/07/20 04:40:49;;;;;;;3.78;2.70;;;;;;;22.39;81.51;99734.06;6488839;27;33321;-83
2023/07/20 04:43:52;;;;;;;3.60;2.62;;;;;;;22.52;79.28;99742.84;6505570;27;34449;-83
2023/07/20 04:46:56;;;;;;;7.60;2.90;;;;;;;22.60;79.27;99742.31;6525195;27;33236;-83
2023/07/20 04:49:58;;;;;;;5.40;2.83;;;;;;;22.71;78.47;99733.00;6487788;27;34110;-83
2023/07/20 04:53:02;;;;;;;6.15;2.83;;;;;;;22.83;77.27;99730.78;6505352;27;33413;-83
2023/07/20 04:56:05;;;;;;;5.72;3.03;;;;;;;23.03;76.43;99731.94;6529412;27;34245;-83
2023/07/20 04:59:08;;;;;;;6.90;2.87;;;;;;;23.16;74.15;99731.34;6514793;27;32177;-83
2023/07/20 05:02:11;;;;;;;5.85;3.00;;;;;;;23.38;73.14;99739.28;6533221;27;34417;-83
2023/07/20 05:05:15;;;;;;;2.80;2.35;;;;;;;23.43;70.42;99742.03;6552677;27;33395;-83
2023/07/20 05:08:18;;;;;;;5.15;2.60;;;;;;;23.50;69.11;99748.03;6520284;27;33370;-83
2023/07/20 05:11:22;;;;;;;6.12;2.65;;;;;;;23.58;69.08;99743.91;6551755;27;33054;-83
2023/07/20 05:14:25;;;;;;;7.85;3.22;;;;;;;23.74;68.54;99752.94;6514404;27;33157;-83
2023/07/20 05:17:29;;;;;;;5.85;2.70;;;;;;;23.81;67.15;99745.22;6515030;27;33285;-83
2023/07/20 05:20:35;;;;;;;3.70;2.50;;;;;;;23.80;67.11;99745.50;6551172;27;33398;-83
2023/07/20 05:23:38;;;;;;;6.35;2.70;;;;;;;23.88;67.19;99747.66;6531915;27;34449;-84
2023/07/20 05:26:41;;;;;;;3.25;2.60;;;;;;;23.94;65.98;99741.03;6514458;27;33858;-86
2023/07/20 05:29:45;;;;;;;5.87;2.95;;;;;;;23.95;64.79;99745.44;6532233;27;33266;-87
2023/07/20 05:32:51;;;;;;;3.47;2.60;;;;;;;23.93;64.05;99739.41;6551209;27;33985;-87
2023/07/20 05:35:54;;;;;;;3.58;2.67;;;;;;;23.98;63.57;99744.88;6532130;27;33616;-84
2023/07/20 05:38:56;;;;;;;4.22;2.75;;;;;;;23.99;63.25;99743.78;6531688;27;33017;-83
2023/07/20 05:41:59;;;;;;;9.07;2.75;;;;;;;24.01;62.44;99733.28;6514722;27;33443;-83
2023/07/20 05:45:02;;;;;;;4.85;3.00;;;;;;;24.04;62.17;99732.72;6551091;27;32927;-84
2023/07/20 05:48:05;;;;;;;4.30;2.85;;;;;;;24.20;60.77;99750.00;6532099;27;33049;-84
2023/07/20 05:51:08;;;;;;;9.02;3.17;;;;;;;24.28;61.22;99754.06;6551063;27;33448;-84
2023/07/20 05:54:11;;;;;;;5.82;2.92;;;;;;;24.47;60.46;99755.06;6550694;27;34107;-83
2023/07/20 05:57:14;;;;;;;5.00;3.05;;;;;;;24.65;60.08;99761.84;6513627;27;32962;-84
2023/07/20 06:00:19;;;;;;;4.95;2.72;;;;;;;24.75;59.47;99767.28;6550759;27;34456;-84
2023/07/20 06:03:22;;;;;;;6.03;3.15;;;;;;;24.81;58.98;99759.81;6531766;27;33299;-83
2023/07/20 06:06:25;;;;;;;9.35;3.17;;;;;;;24.88;58.30;99760.28;6531057;27;34766;-83
2023/07/20 06:09:29;;;;;;;8.15;3.15;;;;;;;24.94;58.30;99766.56;6531331;27;33104;-83
2023/07/20 06:12:33;;;;;;;3.65;3.22;;;;;;;24.97;57.80;99760.50;6551861;27;33016;-83
2023/07/20 06:15:36;;;;;;;7.40;3.20;;;;;;;24.88;58.45;99763.84;6525726;27;164081;-83
2023/07/20 06:18:38;;;;;;;9.00;3.35;;;;;;;24.94;57.72;99761.88;6531371;27;33425;-83
2023/07/20 06:21:42;;;;;;;6.75;3.00;;;;;;;25.09;56.69;99777.44;6531332;27;33404;-83
2023/07/20 06:24:44;;;;;;;4.97;2.75;;;;;;;24.96;57.85;99781.72;6530877;27;34112;-83
2023/07/20 06:27:49;;;;;;;7.40;3.35;;;;;;;25.00;58.15;99782.75;6513757;27;33015;-84
2023/07/20 06:30:52;;;;;;;4.68;2.67;;;;;;;25.18;58.22;99778.50;6549899;27;33308;-84
2023/07/20 06:33:55;;;;;;;6.35;3.20;;;;;;;25.30;58.66;99778.97;6531461;27;34340;-83
2023/07/20 06:36:58;;;;;;;5.90;3.22;;;;;;;25.30;57.49;99780.87;6513528;27;33625;-84
2023/07/20 06:40:03;;;;;;;5.78;3.30;;;;;;;25.42;56.66;99783.22;6550543;27;33318;-84
2023/07/20 06:43:09;;;;;;;5.70;3.40;;;;;;;25.52;56.88;99780.37;6550727;27;33006;-83
2023/07/20 06:46:15;;;;;;;5.70;3.40;;;;;;;25.62;56.82;99796.00;6550324;27;33217;-83
2023/07/20 06:49:28;;;;;;;5.32;3.37;;;;;;;25.58;56.02;99792.19;6550133;27;34207;-83
2023/07/20 06:52:31;;;;;;;14.27;3.67;;;;;;;25.74;56.03;99796.41;6550693;27;33191;-84
2023/07/20 06:55:33;;;;;;;6.28;3.08;;;;;;;25.78;54.81;99805.75;6530846;27;34112;-83
2023/07/20 06:58:44;;;;;;;5.40;3.37;;;;;;;25.81;54.87;99812.63;6514824;27;33378;-83
2023/07/20 07:01:46;;;;;;;8.38;2.90;;;;;;;26.01;54.82;99815.19;6513170;27;33521;-84
2023/07/20 07:04:50;;;;;;;5.28;2.92;;;;;;;26.19;53.85;99813.56;6513654;27;33359;-83
2023/07/20 07:08:03;;;;;;;6.10;3.20;;;;;;;26.21;53.27;99814.91;6533714;27;33528;-83
2023/07/20 07:11:06;;;;;;;5.85;2.83;;;;;;;26.38;52.71;99808.06;6560328;27;33053;-83
2023/07/20 07:14:09;;;;;;;4.53;2.95;;;;;;;26.30;50.97;99817.84;6541941;27;33054;-83
2023/07/20 07:17:13;;;;;;;7.12;2.87;;;;;;;26.45;50.65;99819.56;6515130;27;33900;-83
2023/07/20 07:20:21;;;;;;;;;;;;;;;26.26;50.78;99827.81;6518395;27;34240;-87
2023/07/20 07:23:24;;;;;;;4.35;2.90;;;;;;;26.42;50.56;99832.03;6561622;27;33956;-88
2023/07/20 07:26:26;;;;;;;4.97;2.60;;;;;;;26.65;50.11;99830.38;6548069;27;33746;-88
2023/07/20 07:29:30;;;;;;;6.47;3.12;;;;;;;26.68;49.62;99840.81;6537183;27;33705;-85
2023/07/20 07:32:33;;;;;;;11.95;3.47;;;;;;;26.64;49.16;99827.88;6546996;27;34885;-83
2023/07/20 07:35:36;;;;;;;4.07;3.00;;;;;;;26.63;49.06;99832.59;6551730;27;33484;-84
2023/07/20 07:38:42;;;;;;;7.05;2.62;;;;;;;26.68;48.75;99834.47;6532378;27;33250;-84
2023/07/20 07:41:48;;;;;;;5.80;2.90;;;;;;;26.77;48.00;99829.09;6551499;27;33305;-84
2023/07/20 07:44:51;;;;;;;4.62;2.50;;;;;;;26.98;47.03;99833.19;6496850;27;34106;-84
2023/07/20 07:47:54;;;;;;;3.75;2.42;;;;;;;26.96;46.21;99838.19;6514631;27;33486;-84
2023/07/20 07:50:57;;;;;;;4.82;2.30;;;;;;;27.14;44.99;99833.75;6532351;27;33431;-84
2023/07/20 07:54:00;;;;;;;3.50;2.47;;;;;;;26.92;44.05;99835.19;6551609;27;33265;-84
2023/07/20 07:57:03;;;;;;;5.57;2.67;;;;;;;27.04;43.85;99829.22;6531771;27;33539;-84
2023/07/20 08:00:10;;;;;;;3.85;2.55;;;;;;;27.29;43.92;99822.50;6551258;27;33108;-84
2023/07/20 08:03:13;;;;;;;6.05;2.50;;;;;;;27.54;44.18;99836.97;6551544;27;34041;-84
2023/07/20 08:06:17;;;;;;;6.25;2.90;;;;;;;27.75;44.54;99834.66;6532242;27;34535;-84
2023/07/20 08:09:19;;;;;;;4.28;2.33;;;;;;;28.09;43.75;99841.78;6516109;27;34275;-84
2023/07/20 08:12:22;;;;;;;6.95;2.60;;;;;;;28.73;41.38;99844.59;6534160;27;33372;-84
2023/07/20 08:15:25;;;;;;;4.57;2.67;;;;;;;28.74;39.78;99846.22;6536322;27;33087;-84
2023/07/20 08:18:29;;;;;;;5.25;2.67;;;;;;;28.91;38.56;99838.88;6535153;27;33253;-84
2023/07/20 08:21:32;;;;;;;5.18;2.40;;;;;;;28.88;39.17;99849.78;6515187;27;33529;-83
2023/07/20 08:24:40;;;;;;;5.20;2.33;;;;;;;28.96;38.67;99849.03;6532807;27;33066;-83
2023/07/20 08:27:42;;;;;;;4.57;2.33;;;;;;;29.07;38.79;99850.44;6531928;27;33056;-83
2023/07/20 08:30:48;;;;;;;5.00;2.50;;;;;;;29.49;38.27;99837.19;6514557;27;33472;-83
2023/07/20 08:33:51;;;;;;;4.30;2.20;;;;;;;30.17;36.91;99842.59;6532123;27;33459;-83
2023/07/20 08:36:55;;;;;;;5.85;2.50;;;;;;;29.85;37.12;99839.03;6531743;27;34604;-83
2023/07/20 08:39:57;;;;;;;4.15;2.17;;;;;;;30.18;36.63;99844.22;6532581;27;33573;-83
2023/07/20 08:43:00;;;;;;;6.00;2.37;;;;;;;30.14;36.30;99840.47;6551253;27;33319;-83
2023/07/20 08:46:04;;;;;;;3.47;2.50;;;;;;;30.12;36.63;99843.53;6532788;27;33761;-84
2023/07/20 08:49:07;;;;;;;5.18;2.03;;;;;;;30.27;36.95;99857.03;6532755;27;32908;-84
2023/07/20 08:52:11;;;;;;;3.05;1.92;;;;;;;30.75;35.60;99846.97;6551468;27;33396;-84
2023/07/20 08:55:14;;;;;;;4.00;2.28;;;;;;;30.62;36.56;99853.50;6550724;27;33438;-84
2023/07/20 08:58:17;;;;;;;5.75;2.12;;;;;;;29.86;36.22;99860.09;6514039;27;33580;-84
2023/07/20 09:01:22;;;;;;;4.03;2.10;;;;;;;29.72;36.07;99864.91;6551158;27;33139;-84
2023/07/20 09:04:25;;;;;;;3.72;1.95;;;;;;;28.93;36.59;99869.06;6550860;27;33251;-84
2023/07/20 09:07:28;;;;;;;3.37;2.03;;;;;;;28.58;37.30;99878.97;6550820;27;33103;-84
2023/07/20 09:10:31;;;;;;;4.53;2.33;;;;;;;28.51;37.04;99873.03;6531959;27;34899;-84
2023/07/20 09:13:35;;;;;;;5.15;2.62;;;;;;;28.34;37.50;99873.63;6555614;27;32890;-84
2023/07/20 09:16:53;;;;;;;4.95;2.30;;;;;;;28.30;37.72;99889.25;6566375;27;33304;-84
2023/07/20 09:19:56;;;;;;;4.40;2.12;;;;;;;28.11;38.69;99878.25;6551262;27;33322;-89
2023/07/20 09:22:58;;;;;;;3.67;2.03;;;;;;;27.88;39.34;99888.41;6532070;27;35027;-89
2023/07/20 09:26:14;;;;;;;3.55;1.87;;;;;;;27.66;40.00;99883.50;6515245;27;34496;-85
2023/07/20 09:29:20;;;;;;;4.12;2.33;;;;;;;27.54;40.88;99884.78;6533496;27;33577;-85
2023/07/20 09:32:23;;;;;;;3.72;2.17;;;;;;;27.29;41.65;99876.94;6553116;27;33375;-84
2023/07/20 09:35:30;;;;;;;3.22;2.00;;;;;;;27.11;42.07;99881.31;6533911;27;34254;-84
2023/07/20 09:38:45;;;;;;;5.32;2.67;;;;;;;27.32;42.24;99870.78;6533725;27;34325;-84
2023/07/20 09:41:52;;;;;;;3.35;2.12;;;;;;;27.47;42.19;99886.31;6551255;27;33932;-84
2023/07/20 09:45:15;;;;;;;4.30;2.20;;;;;;;27.67;42.12;99874.91;6551007;27;34193;-84
2023/07/20 09:48:21;;;;;;;4.72;2.33;;;;;;;27.61;41.24;99876.09;6551391;27;33322;-84
2023/07/20 09:51:28;;;;;;;4.57;2.03;;;;;;;27.73;40.73;99876.47;6532660;27;33325;-84
2023/07/20 09:54:32;;;;;;;4.32;2.65;;;;;;;27.88;40.77;99872.63;6531474;27;33159;-84
2023/07/20 09:57:36;;;;;;;4.03;2.30;;;;;;;28.22;39.75;99866.66;6531256;27;33554;-84
2023/07/20 10:00:43;;;;;;;3.12;2.10;;;;;;;28.70;38.48;99873.75;6550657;27;33389;-84
2023/07/20 10:03:53;;;;;;;2.72;2.28;;;;;;;29.01;38.13;99871.06;6550734;27;33600;-85
2023/07/20 10:07:00;;;;;;;3.80;2.25;;;;;;;29.48;38.01;99873.56;6550619;27;33022;-85
2023/07/20 10:10:05;;;;;;;2.45;2.05;;;;;;;30.15;36.98;99875.41;6550777;27;34138;-85
2023/07/20 10:13:25;;;;;;;3.05;2.20;;;;;;;30.74;35.33;99875.91;6541803;27;34411;-85
2023/07/20 10:16:31;;;;;;;3.17;2.42;;;;;;;30.59;35.45;99884.72;6555482;27;34068;-85
2023/07/20 10:19:44;;;;;;;6.35;2.85;;;;;;;30.54;36.22;99876.50;6550424;27;33483;-85
2023/07/20 10:22:55;;;;;;;2.12;1.90;;;;;;;30.86;36.91;99870.56;6550734;27;33837;-85
2023/07/20 10:26:02;;;;;;;4.28;1.98;;;;;;;31.40;34.84;99878.59;6550281;27;33321;-85
2023/07/20 10:29:05;;;;;;;4.03;2.00;;;;;;;30.73;35.17;99865.94;6550439;27;33443;-84
2023/07/20 10:32:09;;;;;;;5.20;2.03;;;;;;;31.14;34.45;99870.22;6528365;27;33119;-85
2023/07/20 10:35:14;;;;;;;5.47;1.83;;;;;;;31.81;33.47;99868.81;6568694;27;34394;-85
2023/07/20 10:38:17;;;;;;;4.87;2.05;;;;;;;32.14;32.85;99871.00;6550604;27;33517;-85
2023/07/20 10:41:39;;;;;;;2.95;2.15;;;;;;;31.76;32.20;99858.66;6514624;27;33048;-85
2023/07/20 10:44:45;;;;;;;4.25;2.00;;;;;;;31.74;32.66;99861.00;6552775;27;33543;-85
2023/07/20 10:47:47;;;;;;;1.70;1.25;;;;;;;31.22;32.80;99863.84;6532279;27;32940;-84
2023/07/20 10:51:16;;;;;;;5.60;1.90;;;;;;;30.81;32.13;99851.25;6532249;27;34128;-85
2023/07/20 10:54:19;;;;;;;7.60;2.03;;;;;;;30.25;32.92;99864.87;6551158;27;34267;-85
2023/07/20 10:57:23;;;;;;;12.18;2.17;;;;;;;29.90;33.16;99865.84;6552811;27;34089;-84
2023/07/20 11:00:29;;;;;;;3.78;1.90;;;;;;;29.93;33.22;99862.44;6552114;27;33201;-85
2023/07/20 11:03:34;;;;;;;3.97;1.73;;;;;;;30.11;33.25;99868.88;6533179;27;33329;-84
2023/07/20 11:06:43;;;;;;;4.97;1.85;;;;;;;30.63;33.09;99866.25;6533308;27;33433;-84
2023/07/20 11:09:48;;;;;;;3.50;1.65;;;;;;;30.20;33.81;99864.16;6551540;27;33299;-85
2023/07/20 11:13:17;;;;;;;2.45;1.80;;;;;;;30.15;33.28;99862.34;6533766;27;33275;-85
2023/07/20 11:16:42;;;;;;;5.30;1.60;;;;;;;30.64;33.63;99868.69;6526802;27;33504;-85
2023/07/20 11:19:55;;;;;;;6.18;1.92;;;;;;;31.45;31.87;99861.72;6564750;27;33323;-85
2023/07/20 11:23:01;;;;;;;5.90;2.17;;;;;;;31.47;31.60;99859.41;6552016;27;34622;-85
2023/07/20 11:26:04;;;;;;;5.00;1.80;;;;;;;31.91;31.26;99856.53;6551922;27;33490;-85
2023/07/20 11:29:07;;;;;;;3.70;1.83;;;;;;;32.98;30.12;99866.41;6533557;27;34151;-85
2023/07/20 11:32:27;;;;;;;7.50;2.10;;;;;;;33.37;29.30;99855.87;6551919;27;33375;-85
2023/07/20 11:35:29;;;;;;;2.85;2.10;;;;;;;32.31;30.56;99859.78;6496809;27;34435;-85
2023/07/20 11:38:32;;;;;;;4.03;1.75;;;;;;;33.03;29.71;99862.63;6532109;27;33365;-85
2023/07/20 11:41:35;;;;;;;3.50;1.77;;;;;;;33.81;28.04;99859.06;6514153;27;33391;-84
2023/07/20 11:44:38;;;;;;;6.12;2.20;;;;;;;35.55;26.30;99862.09;6513760;27;33141;-83
2023/07/20 11:47:41;;;;;;;5.60;1.62;;;;;;;35.90;24.68;99870.59;6532134;27;34122;-83
2023/07/20 11:50:45;;;;;;;4.28;1.70;;;;;;;37.38;23.70;99864.37;6514640;27;34692;-84
2023/07/20 11:53:48;;;;;;;2.80;1.42;;;;;;;38.97;21.88;99855.41;6551891;27;33421;-83
2023/07/20 11:56:57;;;;;;;2.30;1.40;;;;;;;39.06;21.09;99858.72;6532017;27;33401;-83
2023/07/20 12:00:10;;;;;;;1.37;1.20;;;;;;;39.74;20.70;99859.50;6515836;27;33042;-83
2023/07/20 12:03:13;;;;;;;4.37;1.83;;;;;;;39.61;21.41;99846.88;6552720;27;33416;-84
2023/07/20 12:06:16;;;;;;;4.60;2.08;;;;;;;40.92;20.37;99836.97;6551717;27;33557;-84
2023/07/20 12:09:19;;;;;;;3.20;1.60;;;;;;;41.75;19.25;99836.00;6514981;27;34171;-84
2023/07/20 12:12:22;;;;;;;3.15;1.40;;;;;;;41.05;19.37;99840.28;6551728;27;33186;-84
2023/07/20 12:15:26;;;;;;;5.07;1.37;;;;;;;40.98;19.02;99841.84;6531955;27;33131;-83
2023/07/20 12:18:34;;;;;;;3.28;1.77;;;;;;;41.63;18.71;99831.56;6515303;27;33475;-83
2023/07/20 12:21:42;;;;;;;3.30;1.48;;;;;;;42.11;19.02;99838.84;6551910;27;33384;-84
2023/07/20 12:24:45;;;;;;;2.72;1.42;;;;;;;42.50;18.14;99830.31;6515446;27;34046;-84
2023/07/20 12:27:49;;;;;;;3.90;1.70;;;;;;;42.92;17.77;99819.28;6532242;27;34566;-84
2023/07/20 12:30:56;;;;;;;3.00;1.40;;;;;;;42.74;17.76;99823.00;6551519;27;33442;-84
2023/07/20 12:33:59;;;;;;;4.30;1.67;;;;;;;42.82;17.50;99814.47;6516103;27;33392;-83
2023/07/20 12:37:04;;;;;;;7.45;1.60;;;;;;;41.65;17.36;99828.31;6532182;27;33349;-84
2023/07/20 12:40:10;;;;;;;1.48;1.00;;;;;;;41.85;16.70;99829.53;6551012;27;33520;-87
2023/07/20 12:43:13;;;;;;;3.72;1.33;;;;;;;41.98;16.43;99834.81;6532386;27;34465;-87
2023/07/20 12:46:16;;;;;;;2.78;1.33;;;;;;;42.74;16.39;99827.84;6531448;27;33443;-87
2023/07/20 12:49:19;;;;;;;3.15;1.33;;;;;;;42.84;16.61;99824.16;6532219;27;34501;-85
2023/07/20 12:52:22;;;;;;;9.52;1.87;;;;;;;42.98;15.54;99821.25;6552260;27;34244;-84
2023/07/20 12:55:25;;;;;;;1.80;1.33;;;;;;;42.79;15.35;99821.75;6514403;27;33461;-83
2023/07/20 12:58:27;;;;;;;2.53;1.48;;;;;;;40.53;17.47;99824.25;6532387;27;32945;-83
2023/07/20 13:01:31;;;;;;;2.12;1.70;;;;;;;41.71;17.72;99823.06;6533208;27;33358;-84
2023/07/20 13:04:34;;;;;;;1.77;1.50;;;;;;;42.17;16.62;99825.09;6515388;27;34131;-84
2023/07/20 13:07:38;;;;;;;2.42;1.40;;;;;;;44.24;15.61;99814.72;6551016;27;33443;-84
2023/07/20 13:10:44;;;;;;;1.30;1.20;;;;;;;45.41;14.99;99811.66;6546596;27;33036;-84
2023/07/20 13:13:47;;;;;;;1.37;1.17;;;;;;;45.94;13.87;99817.75;6535746;27;33288;-84
2023/07/20 13:16:50;;;;;;;1.52;1.42;;;;;;;44.19;15.03;99818.00;6551092;27;34188;-84
2023/07/20 13:19:53;;;;;;;3.42;1.27;;;;;;;44.64;14.31;99821.59;6551437;27;34333;-84
2023/07/20 13:22:56;;;;;;;2.97;1.20;;;;;;;43.59;14.75;99818.13;6568483;27;33659;-84
2023/07/20 13:25:59;;;;;;;1.25;1.12;;;;;;;43.10;15.37;99822.03;6532414;27;33441;-83
2023/07/20 13:29:02;;;;;;;2.45;1.20;;;;;;;43.36;15.55;99820.69;6513660;27;34097;-83
2023/07/20 13:32:06;;;;;;;2.28;1.55;;;;;;;44.81;14.51;99811.25;6531117;27;33342;-83
2023/07/20 13:35:10;;;;;;;2.67;1.62;;;;;;;44.21;14.61;99810.69;6557905;27;33336;-83
2023/07/20 13:38:13;;;;;;;3.42;1.00;;;;;;;43.84;14.85;99800.88;6568116;27;33734;-83
2023/07/20 13:41:16;;;;;;;4.50;1.60;;;;;;;43.32;15.38;99808.53;6536294;27;33813;-83
2023/07/20 13:44:21;;;;;;;4.15;1.23;;;;;;;43.89;14.96;99819.47;6551450;27;33186;-83
2023/07/20 13:47:24;;;;;;;2.47;1.33;;;;;;;44.79;14.52;99813.75;6530572;27;34792;-83
2023/07/20 13:50:28;;;;;;;1.00;0.90;;;;;;;43.90;15.07;99810.53;6530962;27;33733;-83
2023/07/20 13:53:41;;;;;;;3.55;1.17;;;;;;;43.14;15.59;99812.28;6516354;27;34882;-83
2023/07/20 13:56:47;;;;;;;5.32;1.33;;;;;;;43.48;15.97;99798.31;6550415;27;32824;-83
2023/07/20 13:59:50;;;;;;;1.80;1.30;;;;;;;43.09;15.53;99800.56;6513572;27;33385;-83
2023/07/20 14:02:54;;;;;;;2.80;1.70;;;;;;;43.56;15.31;99801.09;6531271;27;34149;-83
2023/07/20 14:05:59;;;;;;;2.80;1.50;;;;;;;42.63;15.91;99805.22;6514795;27;33232;-83
2023/07/20 14:09:05;;;;;;;1.60;1.15;;;;;;;43.22;15.77;99794.03;6531822;27;33164;-83
2023/07/20 14:12:11;;;;;;;4.70;1.40;;;;;;;41.96;16.87;99800.50;6514051;27;33425;-83
2023/07/20 14:15:13;;;;;;;3.93;1.07;;;;;;;39.81;18.93;99800.41;6550672;27;33305;-83
2023/07/20 14:18:16;;;;;;;2.20;1.30;;;;;;;39.21;19.18;99806.19;6513922;27;33342;-83
2023/07/20 14:21:22;;;;;;;3.40;1.15;;;;;;;38.37;20.07;99807.50;6532555;27;33208;-83
2023/07/20 14:24:27;;;;;;;3.10;1.47;;;;;;;37.95;20.48;99805.66;6550439;27;33365;-84
2023/07/20 14:27:30;;;;;;;3.37;1.42;;;;;;;36.11;22.25;99800.28;6531738;27;34278;-84
2023/07/20 14:30:33;;;;;;;2.20;1.55;;;;;;;35.25;23.32;99811.22;6532873;27;34101;-84
2023/07/20 14:33:35;;;;;;;3.87;1.70;;;;;;;34.58;24.88;99808.09;6532602;27;33271;-84
2023/07/20 14:36:38;;;;;;;2.97;1.90;;;;;;;33.16;25.80;99817.69;6495007;27;32810;-84
2023/07/20 14:39:44;;;;;;;4.53;1.65;;;;;;;32.77;26.32;99816.22;6531352;27;33489;-88
2023/07/20 14:42:48;;;;;;;2.00;1.60;;;;;;;32.56;26.27;99824.59;6531004;27;33059;-88
2023/07/20 14:45:51;;;;;;;3.35;1.48;;;;;;;32.29;27.10;99823.91;6549584;27;34189;-88
2023/07/20 14:48:54;;;;;;;1.42;1.33;;;;;;;32.02;27.60;99808.47;6531175;27;34096;-84
2023/07/20 14:51:56;;;;;;;1.55;1.45;;;;;;;32.08;28.23;99803.53;6550290;27;33600;-84
2023/07/20 14:55:04;;;;;;;2.00;1.50;;;;;;;31.89;28.11;99809.50;6531318;27;33358;-84
2023/07/20 14:58:07;;;;;;;4.28;1.70;;;;;;;31.73;28.43;99816.78;6513970;27;34002;-84
2023/07/20 15:01:10;;;;;;;5.10;1.52;;;;;;;31.73;28.31;99812.03;6530542;27;33520;-84
2023/07/20 15:04:14;;;;;;;1.62;1.52;;;;;;;31.76;28.39;99810.53;6530911;27;33312;-84
2023/07/20 15:07:18;;;;;;;4.82;1.60;;;;;;;31.71;28.38;99811.56;6530719;27;34055;-84
2023/07/20 15:10:22;;;;;;;3.97;1.60;;;;;;;31.57;29.15;99813.75;6550244;27;33611;-84
2023/07/20 15:13:25;;;;;;;2.30;1.45;;;;;;;31.15;28.73;99813.47;6531191;27;33921;-84
2023/07/20 15:16:28;;;;;;;1.60;1.50;;;;;;;30.94;28.58;99818.87;6513219;27;33457;-84
2023/07/20 15:19:31;;;;;;;1.70;1.60;;;;;;;30.79;29.24;99819.38;6530912;27;33493;-84
2023/07/20 15:22:41;;;;;;;2.15;1.48;;;;;;;30.66;29.81;99812.81;6531678;27;34102;-85
2023/07/20 15:25:44;;;;;;;1.40;1.30;;;;;;;30.67;30.07;99814.44;6545491;27;33048;-85
2023/07/20 15:28:47;;;;;;;2.62;1.50;;;;;;;30.18;29.30;99817.25;6527280;27;34879;-85
2023/07/20 15:31:50;;;;;;;5.20;1.73;;;;;;;30.15;28.83;99815.12;6531962;27;33423;-85
2023/07/20 15:34:55;;;;;;;1.55;1.35;;;;;;;30.01;28.99;99815.28;6551661;27;33996;-85
2023/07/20 15:37:59;;;;;;;2.70;1.33;;;;;;;29.85;28.71;99814.06;6514944;27;34413;-85
2023/07/20 15:41:02;;;;;;;3.03;1.70;;;;;;;29.87;29.53;99808.22;6532423;27;33383;-84
2023/07/20 15:44:05;;;;;;;2.22;1.42;;;;;;;29.88;29.99;99816.19;6551508;27;34122;-85
2023/07/20 15:47:08;;;;;;;2.78;1.40;;;;;;;29.69;30.25;99818.37;6515294;27;33506;-84
2023/07/20 15:50:11;;;;;;;2.12;1.27;;;;;;;29.62;30.65;99821.62;6532252;27;33686;-84
2023/07/20 15:53:15;;;;;;;2.00;1.50;;;;;;;29.57;31.03;99819.78;6531849;27;33647;-85
2023/07/20 15:56:18;;;;;;;4.15;1.55;;;;;;;29.46;31.27;99815.66;6532072;27;33038;-85
2023/07/20 15:59:21;;;;;;;4.57;1.58;;;;;;;29.46;30.82;99809.28;6532096;27;34023;-84
2023/07/20 16:02:24;;;;;;;2.22;1.60;;;;;;;29.33;31.57;99813.75;6532128;27;33422;-84
2023/07/20 16:05:27;;;;;;;3.42;1.80;;;;;;;29.21;31.85;99819.06;6532059;27;33390;-84
2023/07/20 16:08:34;;;;;;;1.45;1.35;;;;;;;29.21;31.85;99819.88;6498574;27;33399;-84
2023/07/20 16:11:37;;;;;;;2.20;1.40;;;;;;;29.13;32.13;99815.09;6531865;27;33377;-85
2023/07/20 16:14:40;;;;;;;2.45;1.55;;;;;;;29.10;32.24;99815.72;6514307;27;34116;-84
2023/07/20 16:17:46;;;;;;;1.70;1.60;;;;;;;29.04;32.50;99817.00;6515027;27;33480;-84
2023/07/20 16:20:48;;;;;;;1.87;1.60;;;;;;;28.98;32.09;99823.75;6531886;27;33337;-84
2023/07/20 16:23:52;;;;;;;3.05;1.33;;;;;;;28.88;32.28;99822.06;6531988;27;33455;-85
2023/07/20 16:26:55;;;;;;;2.42;1.65;;;;;;;28.82;32.47;99828.88;6551216;27;34107;-84
2023/07/20 16:29:58;;;;;;;2.45;1.80;;;;;;;28.71;32.79;99826.31;6514357;27;33425;-84
2023/07/20 16:33:01;;;;;;;3.62;1.65;;;;;;;28.55;33.40;99832.50;6532326;27;33424;-84
2023/07/20 16:36:12;;;;;;;2.33;1.45;;;;;;;28.52;33.38;99825.66;6531597;27;34074;-84
2023/07/20 16:39:15;;;;;;;1.92;1.30;;;;;;;28.39;33.57;99834.78;6532271;27;33320;-88
2023/07/20 16:42:21;;;;;;;2.65;1.85;;;;;;;28.30;33.66;99831.91;6530842;27;33102;-88
2023/07/20 16:45:44;;;;;;;4.95;1.65;;;;;;;28.30;33.58;99840.22;6567648;27;33694;-85
2023/07/20 16:48:47;;;;;;;1.90;1.70;;;;;;;28.38;33.42;99841.44;6551341;27;33476;-84
2023/07/20 16:51:52;;;;;;;2.58;1.70;;;;;;;28.19;33.99;99841.56;6532261;27;33050;-85
2023/07/20 16:54:55;;;;;;;2.17;1.40;;;;;;;28.20;34.07;99841.25;6532016;27;34631;-85
2023/07/20 16:57:58;;;;;;;2.78;1.48;;;;;;;28.13;34.60;99840.03;6514133;27;33472;-85
2023/07/20 17:01:04;;;;;;;3.90;1.48;;;;;;;28.14;34.30;99842.50;6551245;27;33385;-84
2023/07/20 17:04:07;;;;;;;1.95;1.60;;;;;;;28.08;33.71;99832.66;6532313;27;34248;-83
2023/07/20 17:07:10;;;;;;;3.17;1.60;;;;;;;28.10;33.74;99837.88;6551080;27;33126;-82
2023/07/20 17:10:16;;;;;;;3.08;1.55;;;;;;;28.20;33.88;99824.66;6515142;27;33493;-85
2023/07/20 17:13:19;;;;;;;4.62;1.60;;;;;;;28.08;34.20;99835.44;6531990;27;33587;-83
2023/07/20 17:16:22;;;;;;;2.97;1.60;;;;;;;28.11;34.71;99837.59;6550856;27;34213;-82
2023/07/20 17:19:25;;;;;;;3.45;1.65;;;;;;;28.20;34.38;99832.16;6551053;27;33471;-83
2023/07/20 17:22:31;;;;;;;4.53;1.70;;;;;;;28.25;34.24;99832.00;6532157;27;33522;-85
2023/07/20 17:25:34;;;;;;;2.00;1.75;;;;;;;28.16;34.48;99840.22;6532585;27;33630;-84
2023/07/20 17:28:37;;;;;;;2.08;1.80;;;;;;;28.15;34.59;99844.12;6515326;27;33391;-84
2023/07/20 17:31:43;;;;;;;2.45;1.80;;;;;;;28.03;35.11;99855.72;6542584;27;34120;-84
2023/07/20 17:34:45;;;;;;;2.00;1.70;;;;;;;27.84;35.41;99854.16;6517060;27;33452;-85
2023/07/20 17:37:48;;;;;;;2.17;1.60;;;;;;;27.69;35.89;99856.03;6534811;27;33850;-84
2023/07/20 17:40:54;;;;;;;5.40;2.20;;;;;;;27.64;35.98;99864.44;6534328;27;33522;-84
2023/07/20 17:43:57;;;;;;;3.30;1.45;;;;;;;27.58;36.28;99866.50;6517351;27;33753;-82
2023/07/20 17:46:59;;;;;;;3.92;1.60;;;;;;;27.54;36.38;99856.34;6554227;27;33552;-84
2023/07/20 17:50:07;;;;;;;3.37;1.85;;;;;;;27.51;36.49;99865.22;6552839;27;34602;-84
2023/07/20 17:53:13;;;;;;;5.30;2.00;;;;;;;27.45;36.72;99860.91;6531841;27;34283;-84
2023/07/20 17:56:15;;;;;;;3.70;1.55;;;;;;;27.48;36.81;99860.31;6550852;27;33246;-84
2023/07/20 17:59:19;;;;;;;2.90;1.48;;;;;;;27.40;37.60;99863.75;6513899;27;32986;-84
2023/07/20 18:02:25;;;;;;;2.47;2.00;;;;;;;27.30;37.38;99865.56;6531429;27;33125;-84
2023/07/20 18:05:28;;;;;;;2.42;1.90;;;;;;;27.23;37.68;99869.84;6531931;27;33821;-84
2023/07/20 18:08:31;;;;;;;2.28;1.70;;;;;;;27.13;38.09;99866.09;6531370;27;33380;-84
2023/07/20 18:11:34;;;;;;;3.65;1.83;;;;;;;27.02;38.59;99861.03;6531262;27;34572;-84
2023/07/20 18:14:40;;;;;;;6.40;1.85;;;;;;;26.93;38.67;99869.16;6514569;27;33436;-84
2023/07/20 18:17:43;;;;;;;2.40;2.00;;;;;;;26.93;38.99;99863.66;6531139;27;34167;-82
2023/07/20 18:20:46;;;;;;;3.00;2.05;;;;;;;26.95;38.98;99853.12;6531132;27;34259;-84